createdAt,value
2023-04-27T00:04:45.374Z,1000.61
2023-04-27T00:09:44.925Z,1000.59
2023-04-27T00:14:44.785Z,1000.60
2023-04-27T00:19:44.806Z,1000.53
2023-04-27T00:24:45.535Z,1000.55
2023-04-27T00:29:44.689Z,1000.61
2023-04-27T00:34:44.628Z,1000.64
2023-04-27T00:39:44.656Z,1000.65
2023-04-27T00:44:44.624Z,1000.70
2023-04-27T00:49:47.969Z,1000.71
2023-04-27T00:54:44.644Z,1000.82
2023-04-27T00:59:44.442Z,1000.76
2023-04-27T01:04:44.118Z,1000.74
2023-04-27T01:09:44.259Z,1000.75
2023-04-27T01:14:43.977Z,1000.72
2023-04-27T01:19:43.843Z,1000.73
2023-04-27T01:24:43.762Z,1000.66
2023-04-27T01:29:43.834Z,1000.65
2023-04-27T01:34:43.603Z,1000.58
2023-04-27T01:39:43.584Z,1000.54
2023-04-27T01:44:43.547Z,1000.57
2023-04-27T01:49:46.567Z,1000.75
2023-04-27T01:54:43.450Z,1000.73
2023-04-27T02:01:46.214Z,1000.83
2023-04-27T02:06:45.932Z,1000.80
2023-04-27T02:11:46.009Z,1000.85
2023-04-27T02:16:45.961Z,1000.86
2023-04-27T02:21:45.835Z,1000.87
2023-04-27T02:26:45.635Z,1000.86
2023-04-27T02:31:45.747Z,1000.86
2023-04-27T02:36:45.632Z,1000.90
2023-04-27T02:41:45.518Z,1000.94
2023-04-27T02:46:45.408Z,1000.93
2023-04-27T02:51:48.339Z,1000.90
2023-04-27T02:56:45.355Z,1000.92
2023-04-27T03:01:45.625Z,1000.98
2023-04-27T03:06:45.181Z,1001.07
2023-04-27T03:11:45.051Z,1001.07
2023-04-27T03:16:45.017Z,1001.12
2023-04-27T03:21:45.089Z,1001.16
2023-04-27T03:26:44.944Z,1001.21
2023-04-27T03:31:44.989Z,1001.24
2023-04-27T03:36:44.816Z,1001.29
2023-04-27T03:57:53.259Z,1001.50
2023-04-27T04:15:24.752Z,1001.50
2023-04-27T04:20:23.966Z,1001.48
2023-04-27T04:25:23.921Z,1001.47
2023-04-27T04:30:23.782Z,1001.52
2023-04-27T04:35:23.927Z,1001.49
2023-04-27T04:40:23.656Z,1001.46
2023-04-27T04:45:23.987Z,1001.48
2023-04-27T04:50:23.494Z,1001.44
2023-04-27T04:55:23.719Z,1001.53
2023-04-27T05:00:23.443Z,1001.56
2023-04-27T05:05:26.372Z,1001.59
2023-04-27T05:10:23.242Z,1001.45
2023-04-27T05:15:23.531Z,1001.37
2023-04-27T05:20:23.214Z,1001.30
2023-04-27T05:25:23.758Z,1001.30
2023-04-27T05:30:23.185Z,1001.19
2023-04-27T05:35:22.969Z,1001.16
2023-04-27T05:40:22.852Z,1001.09
2023-04-27T05:45:22.826Z,1001.06
2023-04-27T05:50:22.711Z,1001.09
2023-04-27T05:55:22.763Z,1001.16
2023-04-27T06:00:22.784Z,1001.02
2023-04-27T06:05:25.937Z,1001.08
2023-04-27T06:10:22.770Z,1001.16
2023-04-27T06:15:22.513Z,1001.13
2023-04-27T06:20:22.378Z,1001.08
2023-04-27T06:25:24.463Z,1001.13
2023-04-27T06:30:22.197Z,1001.11
2023-04-27T06:35:22.774Z,1001.11
2023-04-27T06:40:22.104Z,1001.14
2023-04-27T06:45:22.089Z,1001.18
2023-04-27T06:50:21.999Z,1001.20
2023-04-27T06:55:22.063Z,1001.13
2023-04-27T07:00:22.045Z,1001.05
2023-04-27T07:05:24.892Z,1001.04
2023-04-27T07:10:21.951Z,1001.04
2023-04-27T07:15:21.641Z,1000.97
2023-04-27T07:20:21.644Z,1000.90
2023-04-27T07:25:21.578Z,1000.87
2023-04-27T07:30:29.344Z,1000.94
2023-04-27T07:35:21.391Z,1000.90
2023-04-27T07:40:22.418Z,1000.99
2023-04-27T07:45:21.500Z,1000.92
2023-04-27T07:50:21.214Z,1000.89
2023-04-27T07:55:21.086Z,1000.95
2023-04-27T08:00:21.179Z,1000.81
2023-04-27T08:05:24.713Z,1000.75
2023-04-27T08:10:20.897Z,1000.80
2023-04-27T08:15:20.882Z,1000.81
2023-04-27T08:20:20.775Z,1000.70
2023-04-27T08:25:20.735Z,1000.71
2023-04-27T08:30:20.674Z,1000.79
2023-04-27T08:35:20.668Z,1000.89
2023-04-27T08:40:20.636Z,1000.93
2023-04-27T08:45:21.291Z,1000.90
2023-04-27T08:50:20.377Z,1000.96
2023-04-27T08:55:20.377Z,1001.00
2023-04-27T09:00:20.255Z,1001.03
2023-04-27T09:05:23.322Z,1001.04
2023-04-27T09:10:20.488Z,1001.00
2023-04-27T09:15:20.096Z,1000.97
2023-04-27T09:20:20.092Z,1000.92
2023-04-27T09:25:19.981Z,1000.91
2023-04-27T09:30:19.879Z,1000.80
2023-04-27T09:35:19.980Z,1000.83
2023-04-27T09:40:19.808Z,1000.79
2023-04-27T09:45:19.814Z,1000.79
2023-04-27T09:50:19.784Z,1000.78
2023-04-27T09:55:20.396Z,1000.74
2023-04-27T10:02:49.978Z,1000.67
2023-04-27T10:07:37.980Z,1000.72
2023-04-27T10:18:18.575Z,1000.69
2023-04-27T10:23:18.205Z,1000.71
2023-04-27T10:42:57.581Z,1000.71
2023-04-27T10:47:57.474Z,1000.61
2023-04-27T10:52:58.834Z,1000.56
2023-04-27T10:57:57.682Z,1000.51
2023-04-27T11:02:58.006Z,1000.58
2023-04-27T11:07:57.415Z,1000.51
2023-04-27T11:12:57.115Z,1000.53
2023-04-27T11:17:57.107Z,1000.46
2023-04-27T11:22:57.034Z,1000.47
2023-04-27T11:27:56.877Z,1000.46
2023-04-27T11:32:59.965Z,1000.33
2023-04-27T11:37:56.727Z,1000.41
2023-04-27T11:42:56.830Z,1000.42
2023-04-27T11:47:56.742Z,1000.44
2023-04-27T11:52:56.692Z,1000.42
2023-04-27T11:57:56.484Z,1000.47
2023-04-27T12:02:56.593Z,1000.61
2023-04-27T12:08:03.929Z,1000.49
2023-04-27T12:12:56.266Z,1000.38
2023-04-27T12:17:56.236Z,1000.46
2023-04-27T12:22:56.167Z,1000.39
2023-04-27T12:27:56.153Z,1000.30
2023-04-27T12:33:06.056Z,1000.28
2023-04-27T12:37:55.969Z,1000.33
2023-04-27T12:42:55.904Z,1000.42
2023-04-27T12:48:03.569Z,1000.35
2023-04-27T12:52:56.849Z,1000.35
2023-04-27T12:57:55.745Z,1000.34
2023-04-27T13:02:55.757Z,1000.38
2023-04-27T13:07:55.607Z,1000.23
2023-04-27T13:12:55.572Z,1000.25
2023-04-27T13:17:55.394Z,1000.22
2023-04-27T13:22:55.411Z,1000.13
2023-04-27T13:27:55.304Z,1000.10
2023-04-27T13:33:07.231Z,1000.16
2023-04-27T13:37:56.195Z,1000.08
2023-04-27T13:42:55.130Z,1000.05
2023-04-27T13:47:55.108Z,1000.02
2023-04-27T13:52:55.027Z,999.99
2023-04-27T13:57:54.934Z,999.94
2023-04-27T14:02:55.014Z,999.93
2023-04-27T14:07:54.866Z,999.94
2023-04-27T14:12:54.821Z,999.92
2023-04-27T14:17:54.642Z,999.91
2023-04-27T14:22:55.396Z,999.91
2023-04-27T14:27:54.476Z,999.95
2023-04-27T14:32:57.500Z,1000.03
2023-04-27T14:37:54.458Z,999.97
2023-04-27T14:42:54.450Z,999.98
2023-04-27T14:47:54.337Z,999.95
2023-04-27T14:52:54.212Z,999.92
2023-04-27T14:57:54.113Z,999.93
2023-04-27T15:02:54.198Z,999.86
2023-04-27T15:07:54.085Z,999.85
2023-04-27T15:12:53.947Z,999.89
2023-04-27T15:17:54.128Z,999.80
2023-04-27T15:22:53.854Z,999.82
2023-04-27T15:27:53.736Z,999.81
2023-04-27T15:32:56.784Z,999.71
2023-04-27T15:37:53.554Z,999.72
2023-04-27T15:42:53.784Z,999.71
2023-04-27T15:47:53.466Z,999.66
2023-04-27T15:52:53.441Z,999.64
2023-04-27T15:57:53.292Z,999.62
2023-04-27T16:02:53.422Z,999.61
2023-04-27T16:07:53.331Z,999.60
2023-04-27T16:12:53.398Z,999.52
2023-04-27T16:17:53.132Z,999.53
2023-04-27T16:22:53.070Z,999.39
2023-04-27T16:27:52.911Z,999.35
2023-04-27T16:32:55.985Z,999.38
2023-04-27T16:37:52.831Z,999.38
2023-04-27T16:42:52.739Z,999.35
2023-04-27T16:47:52.767Z,999.35
2023-04-27T16:52:52.652Z,999.32
2023-04-27T16:57:52.496Z,999.54
2023-04-27T17:02:52.745Z,999.56
2023-04-27T17:07:52.523Z,999.62
2023-04-27T17:12:52.374Z,999.57
2023-04-27T17:17:52.322Z,999.64
2023-04-27T17:22:52.216Z,999.64
2023-04-27T17:27:52.220Z,999.64
2023-04-27T17:32:55.092Z,999.62
2023-04-27T17:37:52.017Z,999.59
2023-04-27T17:42:52.066Z,999.58
2023-04-27T17:47:52.047Z,999.68
2023-04-27T17:52:51.814Z,999.63
2023-04-27T17:57:51.854Z,999.67
2023-04-27T18:02:51.812Z,999.73
2023-04-27T18:07:58.999Z,999.78
2023-04-27T18:12:51.554Z,999.83
2023-04-27T18:17:51.651Z,999.88
2023-04-27T18:22:51.394Z,999.87
2023-04-27T18:27:51.448Z,999.95
2023-04-27T18:32:54.343Z,1000.01
2023-04-27T18:37:51.222Z,1000.03
2023-04-27T18:42:51.294Z,1000.04
2023-04-27T18:47:51.186Z,1000.00
2023-04-27T18:52:51.145Z,1000.02
2023-04-27T18:57:51.107Z,1000.06
2023-04-27T19:02:51.168Z,1000.12
2023-04-27T19:07:50.807Z,1000.13
2023-04-27T19:12:50.829Z,1000.12
2023-04-27T19:17:55.525Z,1000.07
2023-04-27T19:22:53.255Z,1000.09
2023-04-27T19:27:50.521Z,1000.15
2023-04-27T19:32:53.525Z,1000.17
2023-04-27T19:37:50.440Z,1000.16
2023-04-27T19:42:50.389Z,1000.18
2023-04-27T19:47:50.450Z,1000.17
2023-04-27T19:52:50.415Z,1000.12
2023-04-27T19:57:50.161Z,1000.09
2023-04-27T20:02:50.992Z,1000.10
2023-04-27T20:07:50.871Z,1000.10
2023-04-27T20:14:01.658Z,1000.05
2023-04-27T20:19:00.513Z,1000.10
2023-04-27T20:24:08.320Z,1000.10
2023-04-27T20:30:19.341Z,1000.00
2023-04-27T20:35:18.073Z,1000.02
2023-04-27T20:40:20.019Z,999.99
2023-04-27T20:45:17.723Z,1000.04
2023-04-27T20:50:17.693Z,1000.02
2023-04-27T20:55:17.639Z,1000.04
2023-04-27T21:00:17.557Z,1000.06
2023-04-27T21:05:17.493Z,1000.06
2023-04-27T21:10:18.046Z,999.98
2023-04-27T21:15:17.334Z,1000.00
2023-04-27T21:20:20.314Z,1000.07
2023-04-27T21:25:17.204Z,1000.04
2023-04-27T21:30:17.166Z,1000.12
2023-04-27T21:35:17.117Z,1000.11
2023-04-27T21:40:17.089Z,1000.03
2023-04-27T21:45:16.949Z,999.98
2023-04-27T21:50:16.942Z,1000.02
2023-04-27T21:55:16.784Z,1000.03
2023-04-27T22:00:16.782Z,999.94
2023-04-27T22:05:16.668Z,999.89
2023-04-27T22:10:16.639Z,999.92
2023-04-27T22:15:16.538Z,999.85
2023-04-27T22:20:20.052Z,999.81
2023-04-27T22:25:16.416Z,999.70
2023-04-27T22:30:16.456Z,999.69
2023-04-27T22:35:25.484Z,999.64
2023-04-27T22:40:17.299Z,999.68
2023-04-27T22:45:23.634Z,999.54
2023-04-27T22:50:23.590Z,999.56
2023-04-27T22:55:16.098Z,999.57
2023-04-27T23:00:15.948Z,999.58
2023-04-27T23:05:15.926Z,999.51
2023-04-27T23:10:15.882Z,999.44
2023-04-27T23:15:15.769Z,999.41
2023-04-27T23:20:28.201Z,999.37
2023-04-27T23:25:16.630Z,999.26
2023-04-27T23:30:15.666Z,999.18
2023-04-27T23:35:15.490Z,999.19
2023-04-27T23:40:15.431Z,999.17
2023-04-27T23:45:15.372Z,999.10
2023-04-27T23:50:15.430Z,999.01
2023-04-27T23:55:15.242Z,998.94
